Accueil
METAR-TAF:

METAR-TAF

Aéroports :

Bâle-Mulhouse, France

Aéroport international de Bâle-Mulhouse-Fribourg

latitude: 47-36N, longitude: 007-31E, altitude: 270 m

Observation

Le bulletin a été fait il y a 32 minutes, à 22:00 UTC
Vent 2 kt de direction variable
Température 16°C
Humidité 72%
Pression 1018 hPa
Visibilité 10 km ou plus
pas de nuages en-dessous de 1500 mètres et pas de cumulonimbus.

METAR: LFSB 262200Z VRB02KT CAVOK 16/11 Q1018 NOSIG

Heure: 00:32 (22:32 UTC)

Prévision

Le bulletin a été fait il y a 2 heures et 31 minutes, à 20:01 UTC
Prévision valable du 26 à 20 UTC au 27 à 18 UTC
Vent 4 kt de est
Visibilité 10 km ou plus
pas de nuages en-dessous de 1500 mètres et pas de cumulonimbus.
Probabilité 40% :
Temporairement
du 27 à 13 UTC au 27 à 17 UTC
Quelques nuages à une hauteur de 6000 ft, Cumulus congestus.

TAF: LFSB 262001Z 2620/2718 10004KT CAVOK PROB40 TEMPO 2713/2717 FEW060TCU

Observations et prévisions météorologiques de plus de 4000 aéroports (messages METAR et TAF).

Les stations disponibles sont représentées par des disques jaunes et rouges sur la carte.

Passer la souris dessus pour voir le nom de la station.

Cliquer dessus pour voir les observations et prévisions météorologiques.

Pour changer de carte: cliquez sur les boutons verts avec une croix noire pour zoomer, sur le bouton vert avec un tiret pour effectuer un zoom arrière, ou sur les flèches vertes pour les cartes adjacentes.


METAR-TAF: